createdAt,value
2022-12-23T00:00:41.594Z,99996.19
2022-12-23T00:03:08.330Z,99995.31
2022-12-23T00:05:39.158Z,99993.59
2022-12-23T00:08:07.636Z,99989.31
2022-12-23T00:10:38.151Z,99994.50
2022-12-23T00:13:23.022Z,99990.22
2022-12-23T00:15:49.811Z,99982.44
2022-12-23T00:18:16.292Z,99987.66
2022-12-23T00:20:42.998Z,99986.78
2022-12-23T00:23:09.769Z,99987.66
2022-12-23T00:25:41.408Z,99987.69
2022-12-23T00:28:11.680Z,99987.69
2022-12-23T00:30:53.970Z,99992.88
2022-12-23T00:33:25.650Z,99993.75
2022-12-23T00:35:52.860Z,99998.97
2022-12-23T00:38:40.805Z,99998.97
2022-12-23T00:41:34.401Z,99987.75
2022-12-23T00:44:01.990Z,99999.88
2022-12-23T00:46:28.516Z,99993.81
2022-12-23T00:49:14.251Z,99990.38
2022-12-23T00:51:40.692Z,99990.38
2022-12-23T00:54:07.599Z,99993.81
2022-12-23T00:56:34.285Z,99996.41
2022-12-23T00:59:00.788Z,99992.97
2022-12-23T01:01:47.232Z,99996.41
2022-12-23T01:04:35.226Z,99993.81
2022-12-23T01:07:03.707Z,99992.97
2022-12-23T01:09:34.210Z,99995.56
2022-12-23T01:12:00.702Z,99990.38
2022-12-23T01:14:27.673Z,99998.13
2022-12-23T01:16:54.189Z,100000.69
2022-12-23T01:19:21.019Z,99998.97
2022-12-23T01:21:50.238Z,99991.19
2022-12-23T01:24:17.429Z,99991.16
2022-12-23T01:26:44.036Z,99991.13
2022-12-23T01:29:11.600Z,99985.94
2022-12-23T01:31:38.453Z,99985.91
2022-12-23T01:34:05.091Z,99995.41
2022-12-23T01:36:31.738Z,99996.28
2022-12-23T01:38:58.730Z,99992.81
2022-12-23T01:41:45.396Z,99990.22
2022-12-23T01:44:48.898Z,99995.41
2022-12-23T01:47:44.541Z,99989.31
2022-12-23T01:50:22.795Z,99985.03
2022-12-23T01:53:18.729Z,99986.75
2022-12-23T01:55:52.099Z,99979.84
2022-12-23T01:58:25.676Z,99991.03
2022-12-23T02:01:12.762Z,99997.06
2022-12-23T02:03:42.819Z,99996.19
2022-12-23T02:07:08.856Z,99989.25
2022-12-23T02:09:40.278Z,99988.38
2022-12-23T02:12:31.592Z,99986.63
2022-12-23T02:15:28.946Z,99983.16
2022-12-23T02:18:10.730Z,99985.75
2022-12-23T02:20:59.082Z,99984.00
2022-12-23T02:23:52.362Z,99991.78
2022-12-23T02:26:24.982Z,99986.59
2022-12-23T02:29:09.756Z,99992.63
2022-12-23T02:32:05.503Z,99984.84
2022-12-23T02:35:04.587Z,99990.00
2022-12-23T02:37:44.030Z,99992.56
2022-12-23T02:40:40.882Z,99989.97
2022-12-23T02:43:41.466Z,99996.00
2022-12-23T02:46:20.109Z,100002.06
2022-12-23T02:49:10.756Z,100009.84
2022-12-23T02:51:43.161Z,100007.22
2022-12-23T02:54:14.149Z,100012.41
2022-12-23T02:56:46.086Z,100010.66
2022-12-23T02:59:20.984Z,100010.66
2022-12-23T03:01:49.557Z,100015.84
2022-12-23T03:04:16.095Z,100017.56
2022-12-23T03:06:49.574Z,100009.78
2022-12-23T03:09:28.654Z,100013.22
2022-12-23T03:12:32.850Z,100018.38
2022-12-23T03:14:59.238Z,100015.78
2022-12-23T03:17:51.027Z,100027.03
2022-12-23T03:20:31.664Z,100020.97
2022-12-23T03:23:30.346Z,100025.25
2022-12-23T03:26:21.719Z,100033.06
2022-12-23T03:29:03.755Z,100031.34
2022-12-23T03:31:33.321Z,100026.16
2022-12-23T03:34:05.442Z,100023.56
2022-12-23T03:36:37.107Z,100032.19
2022-12-23T03:39:07.221Z,100026.97
2022-12-23T03:41:38.617Z,100042.53
2022-12-23T03:44:22.677Z,100039.94
2022-12-23T03:47:00.544Z,100036.44
2022-12-23T03:49:33.710Z,100032.13
2022-12-23T03:52:04.790Z,100032.97
2022-12-23T03:54:45.042Z,100028.63
2022-12-23T03:57:13.608Z,100032.06
2022-12-23T03:59:43.896Z,100034.66
2022-12-23T04:02:24.494Z,100027.72
2022-12-23T04:05:14.678Z,100029.44
2022-12-23T04:07:48.131Z,100032.88
2022-12-23T04:10:15.485Z,100037.22
2022-12-23T04:12:42.417Z,100036.31
2022-12-23T04:15:13.069Z,100044.09
2022-12-23T04:17:39.958Z,100043.25
2022-12-23T04:20:07.133Z,100045.00
2022-12-23T04:22:33.506Z,100040.66
2022-12-23T04:25:00.022Z,100042.41
2022-12-23T04:27:26.510Z,100048.44
2022-12-23T04:29:52.989Z,100051.03
2022-12-23T04:32:22.127Z,100038.06
2022-12-23T04:34:48.565Z,100038.03
2022-12-23T04:37:15.026Z,100046.69
2022-12-23T04:39:41.620Z,100051.88
2022-12-23T04:42:08.163Z,100044.09
2022-12-23T04:44:34.644Z,100057.03
2022-12-23T04:47:01.118Z,100052.75
2022-12-23T04:49:27.821Z,100059.66
2022-12-23T04:51:54.261Z,100064.84
2022-12-23T04:54:20.711Z,100060.50
2022-12-23T04:56:47.233Z,100059.63
2022-12-23T04:59:13.782Z,100070.00
2022-12-23T05:01:42.320Z,100068.25
2022-12-23T05:04:09.931Z,100070.84
2022-12-23T05:06:36.963Z,100063.91
2022-12-23T05:09:04.463Z,100060.44
2022-12-23T05:11:33.266Z,100062.13
2022-12-23T05:14:01.513Z,100065.59
2022-12-23T05:16:28.330Z,100069.00
2022-12-23T05:18:54.812Z,100067.28
2022-12-23T05:21:21.269Z,100067.25
2022-12-23T05:23:49.748Z,100061.19
2022-12-23T05:26:16.173Z,100072.44
2022-12-23T05:28:45.457Z,100077.59
2022-12-23T05:31:13.578Z,100077.59
2022-12-23T05:33:40.329Z,100071.50
2022-12-23T05:36:07.249Z,100074.09
2022-12-23T05:38:33.706Z,100084.44
2022-12-23T05:41:00.155Z,100088.78
2022-12-23T05:43:26.640Z,100087.94
2022-12-23T05:45:53.327Z,100098.31
2022-12-23T05:48:19.892Z,100103.50
2022-12-23T05:50:49.779Z,100111.31
2022-12-23T05:53:16.799Z,100110.38
2022-12-23T05:55:43.302Z,100111.28
2022-12-23T05:58:09.779Z,100118.19
2022-12-23T06:00:36.267Z,100116.47
2022-12-23T06:03:03.401Z,100112.13
2022-12-23T06:05:30.083Z,100119.88
2022-12-23T06:07:56.702Z,100132.03
2022-12-23T06:10:23.283Z,100129.41
2022-12-23T06:12:49.838Z,100125.94
2022-12-23T06:15:16.500Z,100121.59
2022-12-23T06:17:43.354Z,100121.56
2022-12-23T06:20:17.873Z,100117.25
2022-12-23T06:22:46.704Z,100125.91
2022-12-23T06:25:13.187Z,100113.78
2022-12-23T06:27:39.635Z,100107.72
2022-12-23T06:30:07.519Z,100112.88
2022-12-23T06:32:38.142Z,100106.78
2022-12-23T06:35:06.506Z,100110.25
2022-12-23T06:37:33.287Z,100112.00
2022-12-23T06:39:59.805Z,100112.84
2022-12-23T06:42:26.210Z,100125.84
2022-12-23T06:44:52.812Z,100145.78
2022-12-23T06:47:19.299Z,100140.59
2022-12-23T06:49:45.726Z,100151.84
2022-12-23T06:52:12.326Z,100151.81
2022-12-23T06:54:41.098Z,100143.16
2022-12-23T06:57:10.183Z,100136.22
2022-12-23T06:59:36.738Z,100133.63
2022-12-23T07:02:03.668Z,100143.16
2022-12-23T07:04:30.326Z,100149.22
2022-12-23T07:06:57.721Z,100141.44
2022-12-23T07:09:24.507Z,100148.38
2022-12-23T07:11:50.967Z,100153.56
2022-12-23T07:14:17.708Z,100146.63
2022-12-23T07:16:47.118Z,100142.28
2022-12-23T07:19:13.711Z,100145.72
2022-12-23T07:21:40.231Z,100149.22
2022-12-23T07:24:07.454Z,100155.22
2022-12-23T07:26:36.275Z,100144.00
2022-12-23T07:29:04.312Z,100153.53
2022-12-23T07:31:30.835Z,100162.19
2022-12-23T07:33:57.616Z,100159.59
2022-12-23T07:36:24.399Z,100168.25
2022-12-23T07:38:51.607Z,100171.72
2022-12-23T07:41:18.672Z,100170.00
2022-12-23T07:43:45.288Z,100168.25
2022-12-23T07:46:11.806Z,100173.44
2022-12-23T07:48:41.028Z,100175.19
2022-12-23T07:51:08.848Z,100189.03
2022-12-23T07:53:37.651Z,100210.66
2022-12-23T07:56:08.493Z,100213.25
2022-12-23T07:58:34.943Z,100223.63
2022-12-23T08:01:03.605Z,100220.19
2022-12-23T08:03:31.276Z,100225.38
2022-12-23T08:06:09.638Z,100209.75
2022-12-23T08:08:37.552Z,100199.38
2022-12-23T08:11:06.166Z,100205.44
2022-12-23T08:13:35.997Z,100205.44
2022-12-23T08:16:04.419Z,100210.63
2022-12-23T08:18:34.042Z,100212.34
2022-12-23T08:21:10.134Z,100213.22
2022-12-23T08:23:36.747Z,100222.75
2022-12-23T08:26:07.897Z,100229.66
2022-12-23T08:28:36.210Z,100227.03
2022-12-23T08:31:16.322Z,100227.03
2022-12-23T08:33:46.021Z,100240.91
2022-12-23T08:36:19.215Z,100236.56
2022-12-23T08:38:49.417Z,100240.88
2022-12-23T08:41:19.234Z,100238.28
2022-12-23T08:43:46.148Z,100251.22
2022-12-23T08:46:12.928Z,100244.31
2022-12-23T08:48:43.789Z,100245.16
2022-12-23T08:51:17.727Z,100239.94
2022-12-23T08:53:44.929Z,100247.75
2022-12-23T08:56:16.757Z,100254.69
2022-12-23T08:58:45.552Z,100248.63
2022-12-23T09:01:16.401Z,100254.66
2022-12-23T09:03:44.640Z,100252.91
2022-12-23T09:06:14.226Z,100252.88
2022-12-23T09:08:42.588Z,100258.91
2022-12-23T09:11:17.025Z,100267.56
2022-12-23T09:13:44.280Z,100253.72
2022-12-23T09:16:10.912Z,100261.47
2022-12-23T09:18:37.831Z,100266.69
2022-12-23T09:21:11.059Z,100274.44
2022-12-23T09:23:37.750Z,100276.19
2022-12-23T09:26:05.130Z,100273.56
2022-12-23T09:28:31.747Z,100272.69
2022-12-23T09:30:58.584Z,100277.03
2022-12-23T09:33:25.045Z,100273.53
2022-12-23T09:35:51.625Z,100284.78
2022-12-23T09:38:18.142Z,100288.22
2022-12-23T09:40:45.619Z,100289.09
2022-12-23T09:43:30.966Z,100284.72
2022-12-23T09:46:14.035Z,100284.72
2022-12-23T09:49:01.935Z,100283.81
2022-12-23T09:51:31.587Z,100278.59
2022-12-23T09:54:19.437Z,100281.19
2022-12-23T09:57:00.302Z,100278.59
2022-12-23T10:00:04.803Z,100278.59
2022-12-23T10:02:45.259Z,100277.69
2022-12-23T10:05:27.135Z,100288.09
2022-12-23T10:08:08.108Z,100282.00
2022-12-23T10:10:45.556Z,100280.28
2022-12-23T10:13:35.239Z,100281.09
2022-12-23T10:16:30.719Z,100283.69
2022-12-23T10:19:01.742Z,100271.56
2022-12-23T10:21:49.075Z,100268.94
2022-12-23T10:24:29.546Z,100266.31
2022-12-23T10:26:57.112Z,100270.63
2022-12-23T10:29:31.633Z,100274.06
2022-12-23T10:32:17.137Z,100269.75
2022-12-23T10:34:52.903Z,100273.19
2022-12-23T10:37:40.044Z,100280.13
2022-12-23T10:40:10.890Z,100278.38
2022-12-23T10:43:16.236Z,100285.31
2022-12-23T10:46:00.858Z,100287.91
2022-12-23T10:48:38.536Z,100299.16
2022-12-23T10:51:15.821Z,100288.75
2022-12-23T10:53:47.922Z,100287.88
2022-12-23T10:56:15.024Z,100279.19
2022-12-23T10:58:43.343Z,100274.00
2022-12-23T11:01:21.791Z,100273.09
2022-12-23T11:04:04.674Z,100277.38
2022-12-23T11:06:37.564Z,100284.25
2022-12-23T11:09:05.964Z,100285.94
2022-12-23T11:11:59.089Z,100277.25
2022-12-23T11:14:36.777Z,100280.72
2022-12-23T11:17:04.889Z,100285.00
2022-12-23T11:19:31.733Z,100290.22
2022-12-23T11:22:00.176Z,100298.03
2022-12-23T11:24:42.777Z,100298.03
2022-12-23T11:27:15.926Z,100298.00
2022-12-23T11:29:51.884Z,100295.41
2022-12-23T11:32:26.687Z,100298.81
2022-12-23T11:34:55.583Z,100297.97
2022-12-23T11:37:32.832Z,100303.16
2022-12-23T11:39:59.341Z,100297.09
2022-12-23T11:42:30.005Z,100288.41
2022-12-23T11:44:59.474Z,100280.56
2022-12-23T11:47:29.260Z,100271.88
2022-12-23T11:50:01.256Z,100277.03
2022-12-23T11:52:30.636Z,100284.84
2022-12-23T11:55:02.670Z,100279.63
2022-12-23T11:57:32.031Z,100282.16
2022-12-23T12:00:02.847Z,100283.88
2022-12-23T12:02:40.832Z,100288.19
2022-12-23T12:05:22.720Z,100287.25
2022-12-23T12:07:51.841Z,100287.25
2022-12-23T12:10:25.383Z,100285.47
2022-12-23T12:12:57.942Z,100283.72
2022-12-23T12:15:33.661Z,100276.81
2022-12-23T12:18:02.381Z,100272.47
2022-12-23T12:20:34.086Z,100262.91
2022-12-23T12:23:14.050Z,100259.44
2022-12-23T12:25:52.766Z,100264.63
2022-12-23T12:28:24.760Z,100268.97
2022-12-23T12:31:03.409Z,100276.75
2022-12-23T12:33:44.865Z,100266.31
2022-12-23T12:36:37.564Z,100255.06
2022-12-23T12:39:04.507Z,100250.69
2022-12-23T12:41:39.492Z,100259.34
2022-12-23T12:44:28.664Z,100261.84
2022-12-23T12:47:52.205Z,100254.00
2022-12-23T12:50:19.343Z,100231.41
2022-12-23T12:52:45.887Z,100220.97
2022-12-23T12:55:37.462Z,100214.00
2022-12-23T12:58:03.987Z,100214.00
2022-12-23T13:00:47.901Z,100225.28
2022-12-23T13:03:59.837Z,100214.03
2022-12-23T13:06:35.114Z,100204.50
2022-12-23T13:09:24.484Z,100198.44
2022-12-23T13:12:04.742Z,100203.66
2022-12-23T13:14:37.224Z,100201.06
2022-12-23T13:17:25.788Z,100206.28
2022-12-23T13:20:10.369Z,100203.72
2022-12-23T13:22:38.707Z,100208.94
2022-12-23T13:25:05.115Z,100216.75
2022-12-23T13:27:34.556Z,100219.34
2022-12-23T13:30:09.172Z,100217.59
2022-12-23T13:32:48.835Z,100220.16
2022-12-23T13:35:34.780Z,100222.75
2022-12-23T13:38:14.471Z,100227.94
2022-12-23T13:41:08.492Z,100229.72
2022-12-23T13:43:57.453Z,100231.47
2022-12-23T13:46:26.905Z,100224.53
2022-12-23T13:49:09.761Z,100223.72
2022-12-23T13:51:59.393Z,100214.19
2022-12-23T13:54:47.603Z,100215.97
2022-12-23T13:57:42.190Z,100229.00
2022-12-23T14:00:27.376Z,100229.03
2022-12-23T14:03:00.636Z,100233.38
2022-12-23T14:05:35.125Z,100233.41
2022-12-23T14:08:06.002Z,100233.47
2022-12-23T14:10:33.688Z,100233.50
2022-12-23T14:13:04.709Z,100236.97
2022-12-23T14:15:49.383Z,100226.56
2022-12-23T14:18:34.644Z,100233.53
2022-12-23T14:21:24.947Z,100231.81
2022-12-23T14:24:16.259Z,100222.34
2022-12-23T14:27:26.313Z,100227.56
2022-12-23T14:30:16.945Z,100226.75
2022-12-23T14:32:58.720Z,100220.69
2022-12-23T14:35:48.309Z,100218.09
2022-12-23T14:38:14.717Z,100217.25
2022-12-23T14:41:25.177Z,100212.09
2022-12-23T14:44:04.611Z,100213.84
2022-12-23T14:46:33.772Z,100216.44
2022-12-23T14:49:29.808Z,100205.22
2022-12-23T14:51:50.676Z,100198.34
2022-12-23T14:54:18.769Z,100199.25
2022-12-23T14:57:04.525Z,100198.38
2022-12-23T14:59:56.826Z,100210.59
2022-12-23T15:02:36.626Z,100220.13
2022-12-23T15:05:05.284Z,100218.47
2022-12-23T15:07:34.722Z,100224.53
2022-12-23T15:10:07.276Z,100224.56
2022-12-23T15:12:34.533Z,100234.09
2022-12-23T15:15:06.067Z,100228.09
2022-12-23T15:17:35.526Z,100229.84
2022-12-23T15:20:23.768Z,100224.66
2022-12-23T15:22:50.968Z,100211.69
2022-12-23T15:25:23.561Z,100208.22
2022-12-23T15:28:00.935Z,100215.22
2022-12-23T15:30:36.942Z,100214.34
2022-12-23T15:33:27.726Z,100207.44
2022-12-23T15:35:54.514Z,100204.88
2022-12-23T15:38:26.100Z,100204.03
2022-12-23T15:41:13.718Z,100215.31
2022-12-23T15:43:41.840Z,100209.31
2022-12-23T15:46:19.839Z,100217.09
2022-12-23T15:48:50.376Z,100218.84
2022-12-23T15:51:57.716Z,100222.34
2022-12-23T15:54:25.224Z,100231.94
2022-12-23T15:56:56.667Z,100228.47
2022-12-23T15:59:31.774Z,100218.94
2022-12-23T16:01:59.025Z,100211.16
2022-12-23T16:04:28.937Z,100202.53
2022-12-23T16:06:55.925Z,100209.47
2022-12-23T16:09:30.661Z,100205.19
2022-12-23T16:12:00.401Z,100199.97
2022-12-23T16:14:27.802Z,100206.94
2022-12-23T16:16:59.007Z,100195.69
2022-12-23T16:19:45.737Z,100200.06
2022-12-23T16:22:34.398Z,100198.34
2022-12-23T16:25:12.346Z,100197.53
2022-12-23T16:27:42.637Z,100194.06
2022-12-23T16:30:29.532Z,100194.94
2022-12-23T16:32:59.828Z,100193.25
2022-12-23T16:35:31.684Z,100188.91
2022-12-23T16:38:10.757Z,100186.31
2022-12-23T16:40:37.421Z,100182.84
2022-12-23T16:43:05.269Z,100183.72
2022-12-23T16:45:33.412Z,100183.72
2022-12-23T16:48:00.653Z,100173.34
2022-12-23T16:50:31.242Z,100162.09
2022-12-23T16:52:58.301Z,100159.53
2022-12-23T16:55:25.640Z,100156.09
2022-12-23T16:57:52.351Z,100155.22
2022-12-23T17:00:19.486Z,100150.06
2022-12-23T17:02:47.949Z,100150.06
2022-12-23T17:05:19.131Z,100151.81
2022-12-23T17:07:46.067Z,100149.22
2022-12-23T17:10:14.510Z,100149.22
2022-12-23T17:12:41.981Z,100144.91
2022-12-23T17:15:16.806Z,100143.16
2022-12-23T17:17:43.483Z,100144.03
2022-12-23T17:20:10.340Z,100140.56
2022-12-23T17:22:37.336Z,100144.03
2022-12-23T17:25:04.833Z,100143.16
2022-12-23T17:27:31.407Z,100137.16
2022-12-23T17:29:57.942Z,100131.94
2022-12-23T17:32:24.874Z,100137.16
2022-12-23T17:34:51.735Z,100136.31
2022-12-23T17:37:21.395Z,100141.53
2022-12-23T17:39:48.705Z,100148.47
2022-12-23T17:42:24.983Z,100138.06
2022-12-23T17:44:52.506Z,100140.69
2022-12-23T17:47:26.996Z,100146.75
2022-12-23T17:49:53.580Z,100148.50
2022-12-23T17:52:22.759Z,100153.69
2022-12-23T17:54:51.421Z,100153.72
2022-12-23T17:57:23.422Z,100148.50
2022-12-23T17:59:51.333Z,100147.66
2022-12-23T18:02:22.998Z,100152.84
2022-12-23T18:04:49.912Z,100150.25
2022-12-23T18:07:16.507Z,100150.25
2022-12-23T18:09:42.970Z,100145.97
2022-12-23T18:12:25.329Z,100146.84
2022-12-23T18:14:52.125Z,100150.31
2022-12-23T18:17:18.783Z,100147.69
2022-12-23T18:19:45.324Z,100141.66
2022-12-23T18:22:18.521Z,100147.69
2022-12-23T18:24:49.386Z,100145.16
2022-12-23T18:27:26.310Z,100139.97
2022-12-23T18:29:52.906Z,100146.03
2022-12-23T18:32:22.445Z,100146.91
2022-12-23T18:34:49.796Z,100141.72
2022-12-23T18:37:17.402Z,100155.59
2022-12-23T18:39:44.724Z,100150.41
2022-12-23T18:42:19.010Z,100153.00
2022-12-23T18:44:48.233Z,100155.59
2022-12-23T18:47:14.732Z,100158.19
2022-12-23T18:49:41.325Z,100160.78
2022-12-23T18:52:12.539Z,100171.19
2022-12-23T18:54:40.004Z,100160.78
2022-12-23T18:57:07.194Z,100167.72
2022-12-23T18:59:37.434Z,100171.19
2022-12-23T19:02:04.620Z,100166.88
2022-12-23T19:04:31.429Z,100166.03
2022-12-23T19:06:58.207Z,100165.19
2022-12-23T19:09:25.184Z,100165.19
2022-12-23T19:11:53.150Z,100159.13
2022-12-23T19:14:19.600Z,100165.19
2022-12-23T19:16:51.128Z,100166.06
2022-12-23T19:19:19.418Z,100163.47
2022-12-23T19:21:46.103Z,100168.69
2022-12-23T19:24:12.780Z,100177.31
2022-12-23T19:26:39.267Z,100172.13
2022-12-23T19:29:05.733Z,100172.16
2022-12-23T19:31:33.928Z,100179.97
2022-12-23T19:34:01.890Z,100180.84
2022-12-23T19:36:28.571Z,100178.28
2022-12-23T19:38:56.782Z,100180.00
2022-12-23T19:41:23.682Z,100180.84
2022-12-23T19:43:50.170Z,100185.22
2022-12-23T19:46:19.483Z,100185.25
2022-12-23T19:48:54.439Z,100187.88
2022-12-23T19:51:21.001Z,100191.34
2022-12-23T19:53:51.209Z,100189.66
2022-12-23T19:56:22.734Z,100184.44
2022-12-23T19:58:49.652Z,100181.03
2022-12-23T20:01:17.711Z,100183.66
2022-12-23T20:03:47.187Z,100186.25
2022-12-23T20:06:23.452Z,100181.06
2022-12-23T20:08:53.723Z,100182.84
2022-12-23T20:11:26.039Z,100189.75
2022-12-23T20:13:54.344Z,100184.59
2022-12-23T20:16:21.651Z,100186.31
2022-12-23T20:18:49.655Z,100201.06
2022-12-23T20:21:16.159Z,100194.16
2022-12-23T20:23:43.353Z,100188.97
2022-12-23T20:26:12.433Z,100187.25
2022-12-23T20:28:38.989Z,100194.16
2022-12-23T20:31:15.812Z,100188.09
2022-12-23T20:33:49.023Z,100188.09
2022-12-23T20:36:18.006Z,100195.94
2022-12-23T20:38:48.131Z,100196.81
2022-12-23T20:41:17.706Z,100191.59
2022-12-23T20:43:56.891Z,100189.03
2022-12-23T20:46:31.365Z,100196.78
2022-12-23T20:48:58.283Z,100195.06
2022-12-23T20:51:25.682Z,100196.81
2022-12-23T20:53:55.498Z,100201.13
2022-12-23T20:56:27.524Z,100193.38
2022-12-23T20:58:54.855Z,100199.44
2022-12-23T21:01:27.832Z,100202.88
2022-12-23T21:03:55.582Z,100200.31
2022-12-23T21:06:23.316Z,100195.13
2022-12-23T21:08:49.928Z,100197.69
2022-12-23T21:11:16.917Z,100195.97
2022-12-23T21:13:46.996Z,100194.25
2022-12-23T21:16:13.826Z,100193.41
2022-12-23T21:18:42.712Z,100196.00
2022-12-23T21:21:09.708Z,100200.31
2022-12-23T21:23:58.739Z,100194.28
2022-12-23T21:26:32.083Z,100198.59
2022-12-23T21:29:00.922Z,100189.97
2022-12-23T21:31:30.696Z,100191.69
2022-12-23T21:33:59.915Z,100197.75
2022-12-23T21:36:31.127Z,100199.47
2022-12-23T21:38:58.333Z,100189.13
2022-12-23T21:41:27.355Z,100196.91
2022-12-23T21:43:56.083Z,100200.34
2022-12-23T21:46:24.499Z,100209.03
2022-12-23T21:48:51.453Z,100201.22
2022-12-23T21:51:23.661Z,100206.41
2022-12-23T21:53:52.473Z,100199.53
2022-12-23T21:56:24.405Z,100201.25
2022-12-23T21:58:58.734Z,100207.28
2022-12-23T22:01:26.564Z,100203.84
2022-12-23T22:03:57.526Z,100209.88
2022-12-23T22:06:27.779Z,100204.72
2022-12-23T22:08:55.420Z,100209.91
2022-12-23T22:11:25.544Z,100211.63
2022-12-23T22:13:52.733Z,100210.75
2022-12-23T22:16:22.430Z,100215.09
2022-12-23T22:18:50.631Z,100216.84
2022-12-23T22:21:20.007Z,100209.91
2022-12-23T22:23:47.555Z,100215.09
2022-12-23T22:26:22.279Z,100214.25
2022-12-23T22:28:51.768Z,100210.78
2022-12-23T22:31:23.760Z,100213.38
2022-12-23T22:33:50.348Z,100216.81
2022-12-23T22:36:19.325Z,100230.63
2022-12-23T22:38:54.961Z,100232.38
2022-12-23T22:41:22.520Z,100234.09
2022-12-23T22:43:49.386Z,100231.50
2022-12-23T22:46:17.698Z,100226.31
2022-12-23T22:48:44.601Z,100229.75
2022-12-23T22:51:15.130Z,100242.69
2022-12-23T22:53:44.355Z,100241.00
2022-12-23T22:56:13.325Z,100238.41
2022-12-23T22:58:40.480Z,100235.81
2022-12-23T23:01:17.440Z,100236.66
2022-12-23T23:03:43.914Z,100236.66
2022-12-23T23:06:11.447Z,100241.88
2022-12-23T23:08:38.255Z,100241.88
2022-12-23T23:11:05.188Z,100234.94
2022-12-23T23:13:34.510Z,100241.00
2022-12-23T23:16:02.015Z,100240.09
2022-12-23T23:18:30.093Z,100249.63
2022-12-23T23:20:56.727Z,100247.03
2022-12-23T23:23:23.379Z,100247.03
2022-12-23T23:25:49.942Z,100252.22
2022-12-23T23:28:16.751Z,100251.34
2022-12-23T23:30:43.465Z,100253.94
2022-12-23T23:33:11.008Z,100255.66
2022-12-23T23:35:39.847Z,100262.56
2022-12-23T23:38:06.561Z,100254.81
2022-12-23T23:40:33.037Z,100251.38
2022-12-23T23:43:00.060Z,100260.00
2022-12-23T23:45:30.149Z,100260.00
2022-12-23T23:47:56.725Z,100254.81
2022-12-23T23:50:23.573Z,100260.00
2022-12-23T23:52:50.143Z,100256.53
2022-12-23T23:55:16.744Z,100244.47
2022-12-23T23:57:43.411Z,100247.91
